MTY weather

General Mariano Escobedo International Airport
Monterrey, Nuevo Leon, Mexico

Public forecast

Using degrees Celsius for public forecast. Weather courtesy of forecast.io.

Current aviation weather report (METAR) for General Mariano Escobedo International Airport

Retrieved 2019/10/18 07:40 UTC (0 seconds ago):

MMMY 180740Z 00000KT 10SM SKC 17/14 A2987

Aviation forecast (TAF) for General Mariano Escobedo International Airport

Retrieved 2019/10/18 06:24 UTC (1 hour ago):

TAF TAF MMMY 180521Z 1806/1912 13005KT P6SM SKC TX29/1821Z TN15/1812Z FM180900 12005KT 5SM HZ OVC012 FM181500 12010KT P6SM SCT020 FM190200 15005KT P6SM SCT015